sensor_id;sensor_type;location;lat;lon;timestamp;P1;durP1;ratioP1;P2;durP2;ratioP2
73456;SDS011;61691;53.072;6.582;2023-09-18T00:00:56;26.15;;;16.55;;
73456;SDS011;61691;53.072;6.582;2023-09-18T00:03:24;28.40;;;16.45;;
73456;SDS011;61691;53.072;6.582;2023-09-18T00:05:51;29.52;;;18.83;;
73456;SDS011;61691;53.072;6.582;2023-09-18T00:08:18;26.30;;;17.23;;
73456;SDS011;61691;53.072;6.582;2023-09-18T00:10:49;27.92;;;17.48;;
73456;SDS011;61691;53.072;6.582;2023-09-18T00:13:17;26.92;;;16.95;;
73456;SDS011;61691;53.072;6.582;2023-09-18T00:15:44;25.55;;;15.52;;
73456;SDS011;61691;53.072;6.582;2023-09-18T00:18:16;27.20;;;15.80;;
73456;SDS011;61691;53.072;6.582;2023-09-18T00:20:43;31.40;;;18.27;;
73456;SDS011;61691;53.072;6.582;2023-09-18T00:23:12;27.95;;;17.67;;
73456;SDS011;61691;53.072;6.582;2023-09-18T00:25:39;31.77;;;19.00;;
73456;SDS011;61691;53.072;6.582;2023-09-18T00:28:08;29.42;;;19.30;;
73456;SDS011;61691;53.072;6.582;2023-09-18T00:30:37;29.38;;;17.17;;
73456;SDS011;61691;53.072;6.582;2023-09-18T00:33:09;28.13;;;16.85;;
73456;SDS011;61691;53.072;6.582;2023-09-18T00:35:36;28.90;;;17.15;;
73456;SDS011;61691;53.072;6.582;2023-09-18T00:38:02;27.83;;;17.25;;
73456;SDS011;61691;53.072;6.582;2023-09-18T00:40:30;30.00;;;17.55;;
73456;SDS011;61691;53.072;6.582;2023-09-18T00:42:56;27.92;;;17.08;;
73456;SDS011;61691;53.072;6.582;2023-09-18T00:45:23;30.13;;;18.25;;
73456;SDS011;61691;53.072;6.582;2023-09-18T00:47:50;27.48;;;16.75;;
73456;SDS011;61691;53.072;6.582;2023-09-18T00:50:17;27.65;;;16.83;;
73456;SDS011;61691;53.072;6.582;2023-09-18T00:52:44;28.50;;;17.17;;
73456;SDS011;61691;53.072;6.582;2023-09-18T00:55:11;30.02;;;17.45;;
73456;SDS011;61691;53.072;6.582;2023-09-18T00:57:38;31.40;;;18.13;;
73456;SDS011;61691;53.072;6.582;2023-09-18T01:00:06;31.38;;;18.88;;
73456;SDS011;61691;53.072;6.582;2023-09-18T01:02:33;30.52;;;19.33;;
73456;SDS011;61691;53.072;6.582;2023-09-18T01:05:00;28.75;;;18.58;;
73456;SDS011;61691;53.072;6.582;2023-09-18T01:07:27;30.17;;;19.50;;
73456;SDS011;61691;53.072;6.582;2023-09-18T01:09:55;29.33;;;18.88;;
73456;SDS011;61691;53.072;6.582;2023-09-18T01:12:32;30.33;;;18.33;;
73456;SDS011;61691;53.072;6.582;2023-09-18T01:15:14;27.08;;;16.90;;
73456;SDS011;61691;53.072;6.582;2023-09-18T01:17:46;27.83;;;17.63;;
73456;SDS011;61691;53.072;6.582;2023-09-18T01:20:13;26.52;;;17.65;;
73456;SDS011;61691;53.072;6.582;2023-09-18T01:22:40;30.60;;;19.15;;
73456;SDS011;61691;53.072;6.582;2023-09-18T01:25:07;31.35;;;19.55;;
73456;SDS011;61691;53.072;6.582;2023-09-18T01:27:34;27.95;;;19.45;;
73456;SDS011;61691;53.072;6.582;2023-09-18T01:30:01;28.48;;;17.85;;
73456;SDS011;61691;53.072;6.582;2023-09-18T01:32:29;29.13;;;18.02;;
73456;SDS011;61691;53.072;6.582;2023-09-18T01:34:59;28.48;;;18.40;;
73456;SDS011;61691;53.072;6.582;2023-09-18T01:37:29;30.58;;;19.88;;
73456;SDS011;61691;53.072;6.582;2023-09-18T01:39:57;27.80;;;18.23;;
73456;SDS011;61691;53.072;6.582;2023-09-18T01:42:26;28.65;;;18.90;;
73456;SDS011;61691;53.072;6.582;2023-09-18T01:44:54;31.75;;;20.00;;
73456;SDS011;61691;53.072;6.582;2023-09-18T01:47:21;31.75;;;20.60;;
73456;SDS011;61691;53.072;6.582;2023-09-18T01:49:53;29.33;;;19.50;;
73456;SDS011;61691;53.072;6.582;2023-09-18T01:52:20;30.38;;;19.20;;
73456;SDS011;61691;53.072;6.582;2023-09-18T01:54:47;29.88;;;20.05;;
73456;SDS011;61691;53.072;6.582;2023-09-18T01:57:14;30.08;;;19.95;;
73456;SDS011;61691;53.072;6.582;2023-09-18T01:59:40;29.98;;;19.63;;
73456;SDS011;61691;53.072;6.582;2023-09-18T02:02:08;31.83;;;20.17;;
73456;SDS011;61691;53.072;6.582;2023-09-18T02:04:48;31.57;;;22.37;;
73456;SDS011;61691;53.072;6.582;2023-09-18T02:07:32;30.42;;;20.85;;
73456;SDS011;61691;53.072;6.582;2023-09-18T02:10:00;30.98;;;19.83;;
73456;SDS011;61691;53.072;6.582;2023-09-18T02:12:27;32.00;;;21.73;;
73456;SDS011;61691;53.072;6.582;2023-09-18T02:14:53;31.58;;;20.92;;
73456;SDS011;61691;53.072;6.582;2023-09-18T02:17:20;37.38;;;21.48;;
73456;SDS011;61691;53.072;6.582;2023-09-18T02:19:47;32.55;;;22.05;;
73456;SDS011;61691;53.072;6.582;2023-09-18T02:22:14;32.05;;;22.27;;
73456;SDS011;61691;53.072;6.582;2023-09-18T02:24:40;32.30;;;22.08;;
73456;SDS011;61691;53.072;6.582;2023-09-18T02:27:07;30.35;;;21.35;;
73456;SDS011;61691;53.072;6.582;2023-09-18T02:29:34;31.25;;;21.15;;
73456;SDS011;61691;53.072;6.582;2023-09-18T02:32:01;31.17;;;21.52;;
73456;SDS011;61691;53.072;6.582;2023-09-18T02:34:28;30.42;;;19.90;;
73456;SDS011;61691;53.072;6.582;2023-09-18T02:36:55;31.75;;;21.60;;
73456;SDS011;61691;53.072;6.582;2023-09-18T02:39:22;35.25;;;22.05;;
73456;SDS011;61691;53.072;6.582;2023-09-18T02:41:49;31.17;;;22.00;;
73456;SDS011;61691;53.072;6.582;2023-09-18T02:44:15;30.90;;;21.05;;
73456;SDS011;61691;53.072;6.582;2023-09-18T02:46:42;29.77;;;20.67;;
73456;SDS011;61691;53.072;6.582;2023-09-18T02:49:10;31.08;;;19.25;;
73456;SDS011;61691;53.072;6.582;2023-09-18T02:51:36;28.35;;;18.83;;
73456;SDS011;61691;53.072;6.582;2023-09-18T02:54:03;28.88;;;19.60;;
73456;SDS011;61691;53.072;6.582;2023-09-18T02:56:30;27.25;;;18.08;;
73456;SDS011;61691;53.072;6.582;2023-09-18T02:58:57;27.02;;;18.20;;
73456;SDS011;61691;53.072;6.582;2023-09-18T03:01:23;27.98;;;17.63;;
73456;SDS011;61691;53.072;6.582;2023-09-18T03:03:50;25.88;;;17.83;;
73456;SDS011;61691;53.072;6.582;2023-09-18T03:06:17;29.52;;;17.15;;
73456;SDS011;61691;53.072;6.582;2023-09-18T03:08:44;28.63;;;18.25;;
73456;SDS011;61691;53.072;6.582;2023-09-18T03:11:11;26.73;;;16.35;;
73456;SDS011;61691;53.072;6.582;2023-09-18T03:13:45;27.75;;;16.25;;
73456;SDS011;61691;53.072;6.582;2023-09-18T03:16:13;25.85;;;16.13;;
73456;SDS011;61691;53.072;6.582;2023-09-18T03:18:40;25.50;;;16.38;;
73456;SDS011;61691;53.072;6.582;2023-09-18T03:21:07;24.90;;;15.43;;
73456;SDS011;61691;53.072;6.582;2023-09-18T03:23:34;26.23;;;15.40;;
73456;SDS011;61691;53.072;6.582;2023-09-18T03:26:01;26.17;;;15.48;;
73456;SDS011;61691;53.072;6.582;2023-09-18T03:28:29;25.67;;;16.00;;
73456;SDS011;61691;53.072;6.582;2023-09-18T03:30:56;29.88;;;16.02;;
73456;SDS011;61691;53.072;6.582;2023-09-18T03:33:24;25.38;;;14.77;;
73456;SDS011;61691;53.072;6.582;2023-09-18T03:35:51;24.25;;;15.23;;
73456;SDS011;61691;53.072;6.582;2023-09-18T03:38:21;24.15;;;14.15;;
73456;SDS011;61691;53.072;6.582;2023-09-18T03:40:48;23.77;;;13.50;;
73456;SDS011;61691;53.072;6.582;2023-09-18T03:43:15;24.88;;;14.73;;
73456;SDS011;61691;53.072;6.582;2023-09-18T03:45:42;23.15;;;13.90;;
73456;SDS011;61691;53.072;6.582;2023-09-18T03:48:09;23.55;;;13.88;;
73456;SDS011;61691;53.072;6.582;2023-09-18T03:50:37;23.80;;;14.23;;
73456;SDS011;61691;53.072;6.582;2023-09-18T03:53:06;23.20;;;13.68;;
73456;SDS011;61691;53.072;6.582;2023-09-18T03:55:33;24.35;;;13.00;;
73456;SDS011;61691;53.072;6.582;2023-09-18T03:58:00;24.42;;;13.40;;
73456;SDS011;61691;53.072;6.582;2023-09-18T04:00:26;24.55;;;13.48;;
73456;SDS011;61691;53.072;6.582;2023-09-18T04:02:53;23.25;;;13.32;;
73456;SDS011;61691;53.072;6.582;2023-09-18T04:05:20;22.25;;;12.82;;
73456;SDS011;61691;53.072;6.582;2023-09-18T04:07:47;23.38;;;12.95;;
73456;SDS011;61691;53.072;6.582;2023-09-18T04:10:14;22.08;;;12.30;;
73456;SDS011;61691;53.072;6.582;2023-09-18T04:12:50;21.88;;;11.52;;
73456;SDS011;61691;53.072;6.582;2023-09-18T04:15:18;23.40;;;12.15;;
73456;SDS011;61691;53.072;6.582;2023-09-18T04:17:46;22.33;;;12.07;;
73456;SDS011;61691;53.072;6.582;2023-09-18T04:20:14;23.33;;;12.40;;
73456;SDS011;61691;53.072;6.582;2023-09-18T04:22:44;23.27;;;12.23;;
73456;SDS011;61691;53.072;6.582;2023-09-18T04:25:16;21.95;;;12.07;;
73456;SDS011;61691;53.072;6.582;2023-09-18T04:27:46;22.10;;;12.63;;
73456;SDS011;61691;53.072;6.582;2023-09-18T04:30:13;23.70;;;11.90;;
73456;SDS011;61691;53.072;6.582;2023-09-18T04:32:40;22.67;;;12.25;;
73456;SDS011;61691;53.072;6.582;2023-09-18T04:35:08;22.42;;;12.73;;
73456;SDS011;61691;53.072;6.582;2023-09-18T04:37:35;24.08;;;12.35;;
73456;SDS011;61691;53.072;6.582;2023-09-18T04:40:05;22.85;;;12.15;;
73456;SDS011;61691;53.072;6.582;2023-09-18T04:42:35;22.45;;;11.63;;
73456;SDS011;61691;53.072;6.582;2023-09-18T04:45:03;22.77;;;11.25;;
73456;SDS011;61691;53.072;6.582;2023-09-18T04:47:31;23.10;;;11.43;;
73456;SDS011;61691;53.072;6.582;2023-09-18T04:49:58;21.55;;;11.20;;
73456;SDS011;61691;53.072;6.582;2023-09-18T04:52:25;22.75;;;11.57;;
73456;SDS011;61691;53.072;6.582;2023-09-18T04:54:52;21.50;;;11.25;;
73456;SDS011;61691;53.072;6.582;2023-09-18T04:57:20;20.67;;;11.35;;
73456;SDS011;61691;53.072;6.582;2023-09-18T04:59:48;22.05;;;11.63;;
73456;SDS011;61691;53.072;6.582;2023-09-18T05:02:30;22.58;;;11.05;;
73456;SDS011;61691;53.072;6.582;2023-09-18T05:04:58;22.25;;;10.85;;
73456;SDS011;61691;53.072;6.582;2023-09-18T05:07:25;20.60;;;10.93;;
73456;SDS011;61691;53.072;6.582;2023-09-18T05:09:52;22.60;;;11.40;;
73456;SDS011;61691;53.072;6.582;2023-09-18T05:12:19;22.35;;;11.27;;
73456;SDS011;61691;53.072;6.582;2023-09-18T05:14:45;23.70;;;11.32;;
73456;SDS011;61691;53.072;6.582;2023-09-18T05:17:16;20.10;;;10.70;;
73456;SDS011;61691;53.072;6.582;2023-09-18T05:19:43;22.45;;;10.18;;
73456;SDS011;61691;53.072;6.582;2023-09-18T05:22:11;22.75;;;11.27;;
73456;SDS011;61691;53.072;6.582;2023-09-18T05:24:38;21.98;;;10.52;;
73456;SDS011;61691;53.072;6.582;2023-09-18T05:27:05;21.30;;;10.73;;
73456;SDS011;61691;53.072;6.582;2023-09-18T05:29:33;21.98;;;11.23;;
73456;SDS011;61691;53.072;6.582;2023-09-18T05:32:02;20.77;;;10.60;;
73456;SDS011;61691;53.072;6.582;2023-09-18T05:34:30;21.38;;;10.77;;
73456;SDS011;61691;53.072;6.582;2023-09-18T05:36:58;23.90;;;10.65;;
73456;SDS011;61691;53.072;6.582;2023-09-18T05:39:25;22.02;;;10.32;;
73456;SDS011;61691;53.072;6.582;2023-09-18T05:41:51;20.48;;;9.93;;
73456;SDS011;61691;53.072;6.582;2023-09-18T05:44:18;20.10;;;9.55;;
73456;SDS011;61691;53.072;6.582;2023-09-18T05:46:45;20.90;;;9.20;;
73456;SDS011;61691;53.072;6.582;2023-09-18T05:49:12;21.80;;;9.43;;
73456;SDS011;61691;53.072;6.582;2023-09-18T05:51:39;19.63;;;9.15;;
73456;SDS011;61691;53.072;6.582;2023-09-18T05:54:06;21.58;;;9.95;;
73456;SDS011;61691;53.072;6.582;2023-09-18T05:56:33;20.88;;;8.90;;
73456;SDS011;61691;53.072;6.582;2023-09-18T05:59:00;19.88;;;9.02;;
73456;SDS011;61691;53.072;6.582;2023-09-18T06:01:27;19.80;;;8.95;;
73456;SDS011;61691;53.072;6.582;2023-09-18T06:03:54;19.42;;;8.65;;
73456;SDS011;61691;53.072;6.582;2023-09-18T06:06:22;18.98;;;9.25;;
73456;SDS011;61691;53.072;6.582;2023-09-18T06:08:48;18.42;;;9.00;;
73456;SDS011;61691;53.072;6.582;2023-09-18T06:11:15;19.23;;;8.48;;
73456;SDS011;61691;53.072;6.582;2023-09-18T06:13:42;20.95;;;9.55;;
73456;SDS011;61691;53.072;6.582;2023-09-18T06:16:09;19.45;;;8.85;;
73456;SDS011;61691;53.072;6.582;2023-09-18T06:18:36;20.00;;;8.85;;
73456;SDS011;61691;53.072;6.582;2023-09-18T06:21:06;19.90;;;8.30;;
73456;SDS011;61691;53.072;6.582;2023-09-18T06:23:32;18.85;;;7.60;;
73456;SDS011;61691;53.072;6.582;2023-09-18T06:25:59;18.45;;;7.78;;
73456;SDS011;61691;53.072;6.582;2023-09-18T06:28:26;18.60;;;7.22;;
73456;SDS011;61691;53.072;6.582;2023-09-18T06:30:53;18.85;;;7.82;;
73456;SDS011;61691;53.072;6.582;2023-09-18T06:33:21;18.95;;;8.35;;
73456;SDS011;61691;53.072;6.582;2023-09-18T06:35:48;20.88;;;7.72;;
73456;SDS011;61691;53.072;6.582;2023-09-18T06:38:15;18.35;;;7.35;;
73456;SDS011;61691;53.072;6.582;2023-09-18T06:40:42;24.27;;;8.35;;
73456;SDS011;61691;53.072;6.582;2023-09-18T06:43:08;21.08;;;7.60;;
73456;SDS011;61691;53.072;6.582;2023-09-18T06:45:35;19.05;;;7.57;;
73456;SDS011;61691;53.072;6.582;2023-09-18T06:48:04;20.77;;;8.07;;
73456;SDS011;61691;53.072;6.582;2023-09-18T06:50:32;21.42;;;8.23;;
73456;SDS011;61691;53.072;6.582;2023-09-18T06:52:59;19.80;;;8.13;;
73456;SDS011;61691;53.072;6.582;2023-09-18T06:55:26;19.92;;;8.55;;
73456;SDS011;61691;53.072;6.582;2023-09-18T06:57:53;20.90;;;8.82;;
73456;SDS011;61691;53.072;6.582;2023-09-18T07:00:20;20.90;;;8.85;;
73456;SDS011;61691;53.072;6.582;2023-09-18T07:02:47;20.13;;;8.80;;
73456;SDS011;61691;53.072;6.582;2023-09-18T07:05:16;19.08;;;9.32;;
73456;SDS011;61691;53.072;6.582;2023-09-18T07:07:43;23.65;;;9.82;;
73456;SDS011;61691;53.072;6.582;2023-09-18T07:13:18;37.75;;;12.82;;
73456;SDS011;61691;53.072;6.582;2023-09-18T07:15:44;28.95;;;12.68;;
73456;SDS011;61691;53.072;6.582;2023-09-18T07:18:11;24.95;;;11.57;;
73456;SDS011;61691;53.072;6.582;2023-09-18T07:20:40;30.45;;;12.02;;
73456;SDS011;61691;53.072;6.582;2023-09-18T07:23:08;26.08;;;12.90;;
73456;SDS011;61691;53.072;6.582;2023-09-18T07:25:35;24.25;;;12.35;;
73456;SDS011;61691;53.072;6.582;2023-09-18T07:28:07;28.33;;;13.23;;
73456;SDS011;61691;53.072;6.582;2023-09-18T07:30:35;24.90;;;12.30;;
73456;SDS011;61691;53.072;6.582;2023-09-18T07:33:03;23.42;;;12.23;;
73456;SDS011;61691;53.072;6.582;2023-09-18T07:35:30;25.13;;;13.40;;
73456;SDS011;61691;53.072;6.582;2023-09-18T07:37:57;24.77;;;12.65;;
73456;SDS011;61691;53.072;6.582;2023-09-18T07:40:24;24.13;;;12.80;;
73456;SDS011;61691;53.072;6.582;2023-09-18T07:42:50;24.92;;;12.48;;
73456;SDS011;61691;53.072;6.582;2023-09-18T07:45:17;25.25;;;12.50;;
73456;SDS011;61691;53.072;6.582;2023-09-18T07:47:44;25.92;;;12.48;;
73456;SDS011;61691;53.072;6.582;2023-09-18T07:50:12;24.35;;;12.07;;
73456;SDS011;61691;53.072;6.582;2023-09-18T07:52:39;24.10;;;11.60;;
73456;SDS011;61691;53.072;6.582;2023-09-18T07:55:06;25.05;;;12.10;;
73456;SDS011;61691;53.072;6.582;2023-09-18T07:57:33;24.10;;;11.20;;
73456;SDS011;61691;53.072;6.582;2023-09-18T08:00:00;25.92;;;12.45;;
73456;SDS011;61691;53.072;6.582;2023-09-18T08:02:34;24.65;;;11.82;;
73456;SDS011;61691;53.072;6.582;2023-09-18T08:05:01;24.02;;;12.05;;
73456;SDS011;61691;53.072;6.582;2023-09-18T08:07:28;24.95;;;13.25;;
73456;SDS011;61691;53.072;6.582;2023-09-18T08:09:55;25.60;;;11.68;;
73456;SDS011;61691;53.072;6.582;2023-09-18T08:12:22;23.30;;;11.07;;
73456;SDS011;61691;53.072;6.582;2023-09-18T08:14:50;22.55;;;11.23;;
73456;SDS011;61691;53.072;6.582;2023-09-18T08:17:16;23.23;;;11.30;;
73456;SDS011;61691;53.072;6.582;2023-09-18T08:19:43;22.92;;;10.82;;
73456;SDS011;61691;53.072;6.582;2023-09-18T08:22:13;23.23;;;10.07;;
73456;SDS011;61691;53.072;6.582;2023-09-18T08:24:41;24.80;;;10.48;;
73456;SDS011;61691;53.072;6.582;2023-09-18T08:27:08;22.40;;;10.35;;
73456;SDS011;61691;53.072;6.582;2023-09-18T08:29:35;22.25;;;10.27;;
73456;SDS011;61691;53.072;6.582;2023-09-18T08:32:02;20.90;;;10.02;;
73456;SDS011;61691;53.072;6.582;2023-09-18T08:34:29;22.10;;;10.40;;
73456;SDS011;61691;53.072;6.582;2023-09-18T08:36:55;23.60;;;10.75;;
73456;SDS011;61691;53.072;6.582;2023-09-18T08:39:22;21.27;;;10.52;;
73456;SDS011;61691;53.072;6.582;2023-09-18T08:41:50;27.20;;;12.40;;
73456;SDS011;61691;53.072;6.582;2023-09-18T08:44:17;22.63;;;11.05;;
73456;SDS011;61691;53.072;6.582;2023-09-18T08:46:45;22.92;;;10.20;;
73456;SDS011;61691;53.072;6.582;2023-09-18T08:49:12;21.65;;;10.48;;
73456;SDS011;61691;53.072;6.582;2023-09-18T08:51:40;21.08;;;9.93;;
73456;SDS011;61691;53.072;6.582;2023-09-18T08:54:08;24.00;;;11.30;;
73456;SDS011;61691;53.072;6.582;2023-09-18T08:56:36;22.42;;;11.23;;
73456;SDS011;61691;53.072;6.582;2023-09-18T08:59:03;24.00;;;11.20;;
73456;SDS011;61691;53.072;6.582;2023-09-18T09:01:29;23.50;;;11.85;;
73456;SDS011;61691;53.072;6.582;2023-09-18T09:03:56;24.10;;;11.27;;
73456;SDS011;61691;53.072;6.582;2023-09-18T09:06:23;23.42;;;11.15;;
73456;SDS011;61691;53.072;6.582;2023-09-18T09:08:50;22.88;;;10.77;;
73456;SDS011;61691;53.072;6.582;2023-09-18T09:11:18;24.60;;;11.82;;
73456;SDS011;61691;53.072;6.582;2023-09-18T09:13:46;24.30;;;11.82;;
73456;SDS011;61691;53.072;6.582;2023-09-18T09:16:13;23.33;;;11.48;;
73456;SDS011;61691;53.072;6.582;2023-09-18T09:18:47;26.83;;;12.20;;
73456;SDS011;61691;53.072;6.582;2023-09-18T09:21:16;24.40;;;11.30;;
73456;SDS011;61691;53.072;6.582;2023-09-18T09:23:50;28.17;;;11.57;;
73456;SDS011;61691;53.072;6.582;2023-09-18T09:26:22;22.80;;;11.07;;
73456;SDS011;61691;53.072;6.582;2023-09-18T09:28:50;24.58;;;11.65;;
73456;SDS011;61691;53.072;6.582;2023-09-18T09:31:30;23.95;;;10.38;;
73456;SDS011;61691;53.072;6.582;2023-09-18T09:33:57;24.35;;;11.32;;
73456;SDS011;61691;53.072;6.582;2023-09-18T09:36:25;21.92;;;11.70;;
73456;SDS011;61691;53.072;6.582;2023-09-18T09:38:55;25.23;;;12.35;;
73456;SDS011;61691;53.072;6.582;2023-09-18T09:41:26;24.73;;;12.20;;
73456;SDS011;61691;53.072;6.582;2023-09-18T09:44:00;24.92;;;12.85;;
73456;SDS011;61691;53.072;6.582;2023-09-18T09:46:27;23.20;;;12.00;;
73456;SDS011;61691;53.072;6.582;2023-09-18T09:48:58;24.75;;;12.20;;
73456;SDS011;61691;53.072;6.582;2023-09-18T09:51:25;22.77;;;12.00;;
73456;SDS011;61691;53.072;6.582;2023-09-18T09:53:52;23.35;;;13.20;;
73456;SDS011;61691;53.072;6.582;2023-09-18T09:56:19;25.45;;;13.45;;
73456;SDS011;61691;53.072;6.582;2023-09-18T09:59:01;25.52;;;14.05;;
73456;SDS011;61691;53.072;6.582;2023-09-18T10:01:34;24.80;;;13.23;;
73456;SDS011;61691;53.072;6.582;2023-09-18T10:04:05;24.33;;;13.45;;
73456;SDS011;61691;53.072;6.582;2023-09-18T10:06:38;23.88;;;13.35;;
73456;SDS011;61691;53.072;6.582;2023-09-18T10:09:13;23.20;;;12.43;;
73456;SDS011;61691;53.072;6.582;2023-09-18T10:11:41;26.20;;;12.38;;
73456;SDS011;61691;53.072;6.582;2023-09-18T10:14:12;24.02;;;13.00;;
73456;SDS011;61691;53.072;6.582;2023-09-18T10:16:45;23.38;;;12.18;;
73456;SDS011;61691;53.072;6.582;2023-09-18T10:19:27;26.55;;;14.10;;
73456;SDS011;61691;53.072;6.582;2023-09-18T10:22:11;22.33;;;12.70;;
73456;SDS011;61691;53.072;6.582;2023-09-18T10:24:40;21.40;;;12.55;;
73456;SDS011;61691;53.072;6.582;2023-09-18T10:27:08;23.23;;;11.63;;
73456;SDS011;61691;53.072;6.582;2023-09-18T10:29:37;20.52;;;11.13;;
73456;SDS011;61691;53.072;6.582;2023-09-18T10:32:07;22.42;;;11.52;;
73456;SDS011;61691;53.072;6.582;2023-09-18T10:34:34;22.40;;;10.55;;
73456;SDS011;61691;53.072;6.582;2023-09-18T10:37:03;18.48;;;9.48;;
73456;SDS011;61691;53.072;6.582;2023-09-18T10:39:37;19.50;;;9.25;;
73456;SDS011;61691;53.072;6.582;2023-09-18T10:42:07;19.55;;;8.50;;
73456;SDS011;61691;53.072;6.582;2023-09-18T10:44:34;18.05;;;8.07;;
73456;SDS011;61691;53.072;6.582;2023-09-18T10:47:02;18.70;;;8.25;;
73456;SDS011;61691;53.072;6.582;2023-09-18T10:49:33;18.83;;;7.93;;
73456;SDS011;61691;53.072;6.582;2023-09-18T10:52:01;20.40;;;7.28;;
73456;SDS011;61691;53.072;6.582;2023-09-18T10:54:30;18.08;;;6.82;;
73456;SDS011;61691;53.072;6.582;2023-09-18T10:56:58;19.40;;;7.25;;
73456;SDS011;61691;53.072;6.582;2023-09-18T10:59:25;17.08;;;6.75;;
73456;SDS011;61691;53.072;6.582;2023-09-18T11:01:54;17.85;;;6.35;;
73456;SDS011;61691;53.072;6.582;2023-09-18T11:04:22;17.15;;;6.00;;
73456;SDS011;61691;53.072;6.582;2023-09-18T11:09:23;15.95;;;5.57;;
73456;SDS011;61691;53.072;6.582;2023-09-18T11:14:46;16.85;;;5.30;;
73456;SDS011;61691;53.072;6.582;2023-09-18T11:17:55;15.88;;;5.22;;
73456;SDS011;61691;53.072;6.582;2023-09-18T11:20:24;17.10;;;5.70;;
73456;SDS011;61691;53.072;6.582;2023-09-18T11:25:34;15.60;;;4.90;;
73456;SDS011;61691;53.072;6.582;2023-09-18T11:28:05;15.60;;;4.80;;
73456;SDS011;61691;53.072;6.582;2023-09-18T11:30:36;15.23;;;4.63;;
73456;SDS011;61691;53.072;6.582;2023-09-18T11:33:06;14.50;;;4.30;;
73456;SDS011;61691;53.072;6.582;2023-09-18T11:35:34;16.63;;;4.40;;
73456;SDS011;61691;53.072;6.582;2023-09-18T11:38:05;14.15;;;4.15;;
73456;SDS011;61691;53.072;6.582;2023-09-18T11:40:35;16.35;;;4.20;;
73456;SDS011;61691;53.072;6.582;2023-09-18T11:46:00;13.93;;;3.75;;
73456;SDS011;61691;53.072;6.582;2023-09-18T11:48:30;14.23;;;3.95;;
73456;SDS011;61691;53.072;6.582;2023-09-18T11:51:00;15.00;;;4.50;;
73456;SDS011;61691;53.072;6.582;2023-09-18T11:53:33;14.30;;;4.20;;
73456;SDS011;61691;53.072;6.582;2023-09-18T11:56:02;17.15;;;4.20;;
73456;SDS011;61691;53.072;6.582;2023-09-18T11:58:30;15.15;;;3.92;;
73456;SDS011;61691;53.072;6.582;2023-09-18T12:00:56;15.52;;;4.00;;
73456;SDS011;61691;53.072;6.582;2023-09-18T12:03:39;14.73;;;4.43;;
73456;SDS011;61691;53.072;6.582;2023-09-18T12:06:05;18.55;;;3.80;;
73456;SDS011;61691;53.072;6.582;2023-09-18T12:08:33;16.70;;;4.20;;
73456;SDS011;61691;53.072;6.582;2023-09-18T12:11:00;16.10;;;4.28;;
73456;SDS011;61691;53.072;6.582;2023-09-18T12:13:31;13.75;;;4.18;;
73456;SDS011;61691;53.072;6.582;2023-09-18T12:16:02;15.52;;;4.00;;
73456;SDS011;61691;53.072;6.582;2023-09-18T12:18:33;14.57;;;3.97;;
73456;SDS011;61691;53.072;6.582;2023-09-18T12:21:07;14.48;;;4.20;;
73456;SDS011;61691;53.072;6.582;2023-09-18T12:23:37;14.60;;;4.18;;
73456;SDS011;61691;53.072;6.582;2023-09-18T12:26:06;14.52;;;3.90;;
73456;SDS011;61691;53.072;6.582;2023-09-18T12:28:36;15.02;;;4.00;;
73456;SDS011;61691;53.072;6.582;2023-09-18T12:31:03;17.55;;;4.80;;
73456;SDS011;61691;53.072;6.582;2023-09-18T12:33:33;12.68;;;3.40;;
73456;SDS011;61691;53.072;6.582;2023-09-18T12:36:05;14.52;;;4.00;;
73456;SDS011;61691;53.072;6.582;2023-09-18T12:38:34;13.75;;;3.53;;
73456;SDS011;61691;53.072;6.582;2023-09-18T12:41:03;15.10;;;4.07;;
73456;SDS011;61691;53.072;6.582;2023-09-18T12:43:39;15.77;;;3.85;;
73456;SDS011;61691;53.072;6.582;2023-09-18T12:46:10;14.02;;;4.07;;
73456;SDS011;61691;53.072;6.582;2023-09-18T12:48:38;16.67;;;3.78;;
73456;SDS011;61691;53.072;6.582;2023-09-18T12:51:11;18.02;;;4.05;;
73456;SDS011;61691;53.072;6.582;2023-09-18T12:53:40;16.95;;;3.85;;
73456;SDS011;61691;53.072;6.582;2023-09-18T12:56:09;14.25;;;3.58;;
73456;SDS011;61691;53.072;6.582;2023-09-18T12:58:41;15.32;;;3.83;;
73456;SDS011;61691;53.072;6.582;2023-09-18T13:01:27;17.73;;;3.90;;
73456;SDS011;61691;53.072;6.582;2023-09-18T13:03:54;14.88;;;4.00;;
73456;SDS011;61691;53.072;6.582;2023-09-18T13:06:27;12.98;;;3.50;;
73456;SDS011;61691;53.072;6.582;2023-09-18T13:08:53;14.18;;;3.20;;
73456;SDS011;61691;53.072;6.582;2023-09-18T13:11:20;14.45;;;3.60;;
73456;SDS011;61691;53.072;6.582;2023-09-18T13:13:56;16.63;;;3.53;;
73456;SDS011;61691;53.072;6.582;2023-09-18T13:16:24;13.73;;;3.80;;
73456;SDS011;61691;53.072;6.582;2023-09-18T13:18:51;14.00;;;4.07;;
73456;SDS011;61691;53.072;6.582;2023-09-18T13:21:18;14.77;;;4.22;;
73456;SDS011;61691;53.072;6.582;2023-09-18T13:23:46;12.25;;;3.42;;
73456;SDS011;61691;53.072;6.582;2023-09-18T13:26:12;16.92;;;4.10;;
73456;SDS011;61691;53.072;6.582;2023-09-18T13:28:39;14.13;;;3.40;;
73456;SDS011;61691;53.072;6.582;2023-09-18T13:31:07;13.38;;;3.60;;
73456;SDS011;61691;53.072;6.582;2023-09-18T13:33:40;15.55;;;4.35;;
73456;SDS011;61691;53.072;6.582;2023-09-18T13:36:07;11.98;;;3.22;;
73456;SDS011;61691;53.072;6.582;2023-09-18T13:38:34;14.82;;;4.00;;
73456;SDS011;61691;53.072;6.582;2023-09-18T13:41:01;12.98;;;3.90;;
73456;SDS011;61691;53.072;6.582;2023-09-18T13:43:28;12.82;;;3.47;;
73456;SDS011;61691;53.072;6.582;2023-09-18T13:45:59;12.68;;;3.70;;
73456;SDS011;61691;53.072;6.582;2023-09-18T13:48:25;13.57;;;3.20;;
73456;SDS011;61691;53.072;6.582;2023-09-18T13:50:52;13.43;;;3.10;;
73456;SDS011;61691;53.072;6.582;2023-09-18T13:53:19;13.07;;;3.28;;
73456;SDS011;61691;53.072;6.582;2023-09-18T13:55:46;13.65;;;3.40;;
73456;SDS011;61691;53.072;6.582;2023-09-18T13:58:13;15.75;;;4.00;;
73456;SDS011;61691;53.072;6.582;2023-09-18T14:00:40;13.50;;;3.65;;
73456;SDS011;61691;53.072;6.582;2023-09-18T14:03:09;11.15;;;3.65;;
73456;SDS011;61691;53.072;6.582;2023-09-18T14:05:37;12.63;;;3.17;;
73456;SDS011;61691;53.072;6.582;2023-09-18T14:08:05;14.27;;;3.17;;
73456;SDS011;61691;53.072;6.582;2023-09-18T14:10:32;14.93;;;3.10;;
73456;SDS011;61691;53.072;6.582;2023-09-18T14:12:58;13.80;;;3.17;;
73456;SDS011;61691;53.072;6.582;2023-09-18T14:15:25;14.25;;;3.35;;
73456;SDS011;61691;53.072;6.582;2023-09-18T14:17:52;14.50;;;3.65;;
73456;SDS011;61691;53.072;6.582;2023-09-18T14:20:19;13.30;;;3.30;;
73456;SDS011;61691;53.072;6.582;2023-09-18T14:22:46;11.32;;;3.00;;
73456;SDS011;61691;53.072;6.582;2023-09-18T14:25:16;12.48;;;3.17;;
73456;SDS011;61691;53.072;6.582;2023-09-18T14:27:46;12.73;;;3.33;;
73456;SDS011;61691;53.072;6.582;2023-09-18T14:30:13;13.68;;;3.33;;
73456;SDS011;61691;53.072;6.582;2023-09-18T14:32:40;13.07;;;3.38;;
73456;SDS011;61691;53.072;6.582;2023-09-18T14:35:06;14.27;;;3.17;;
73456;SDS011;61691;53.072;6.582;2023-09-18T14:37:36;13.13;;;3.72;;
73456;SDS011;61691;53.072;6.582;2023-09-18T14:40:04;11.23;;;3.00;;
73456;SDS011;61691;53.072;6.582;2023-09-18T14:42:31;12.73;;;3.30;;
73456;SDS011;61691;53.072;6.582;2023-09-18T14:44:59;13.63;;;3.55;;
73456;SDS011;61691;53.072;6.582;2023-09-18T14:47:28;13.13;;;3.58;;